Time;durP1;ratioP1;P1;durP2;ratioP2;P2;SDS_P1;SDS_P2;PMS_P1;PMS_P2;Temp;Humidity;BMP_temperature;BMP_pressure;BME280_temperature;BME280_humidity;BME280_pressure;Samples;Min_cycle;Max_cycle;Signal;HPM_P1;HPM_P2
2023/07/09 00:02:22;;;;;;;0.08;0.08;;;22.20;94.90;;;;;;5052641;28;20556;-66
2023/07/09 00:04:48;;;;;;;0.00;0.00;;;22.10;95.10;;;;;;5053029;28;20276;-66
2023/07/09 00:07:19;;;;;;;0.00;0.00;;;22.10;95.40;;;;;;5053203;28;20598;-66
2023/07/09 00:09:45;;;;;;;0.00;0.00;;;22.00;95.40;;;;;;5051484;28;20177;-66
2023/07/09 00:12:16;;;;;;;0.00;0.00;;;22.00;95.60;;;;;;5053040;28;20269;-66
2023/07/09 00:14:42;;;;;;;0.00;0.00;;;22.00;95.60;;;;;;5052658;28;20177;-66
2023/07/09 00:17:10;;;;;;;0.00;0.00;;;21.80;95.90;;;;;;5051705;28;20651;-66
2023/07/09 00:19:36;;;;;;;0.00;0.00;;;21.70;96.30;;;;;;5052868;28;20278;-66
2023/07/09 00:22:13;;;;;;;0.10;0.10;;;21.70;96.60;;;;;;5052819;28;20744;-66
2023/07/09 00:24:38;;;;;;;0.28;0.28;;;21.70;96.80;;;;;;5052745;28;20204;-66
2023/07/09 00:27:08;;;;;;;0.00;0.00;;;21.60;97.00;;;;;;5052829;28;20208;-66
2023/07/09 00:29:33;;;;;;;0.20;0.20;;;21.60;97.30;;;;;;5052817;28;20417;-65
2023/07/09 00:31:59;;;;;;;0.00;0.00;;;21.50;97.50;;;;;;5052739;28;20728;-66
2023/07/09 00:34:24;;;;;;;0.90;0.55;;;21.50;97.60;;;;;;5052553;28;20185;-66
2023/07/09 00:36:51;;;;;;;0.00;0.00;;;21.50;97.60;;;;;;5052726;28;20192;-66
2023/07/09 00:39:18;;;;;;;0.00;0.00;;;21.50;97.70;;;;;;5052569;28;20170;-66
2023/07/09 00:41:46;;;;;;;0.00;0.00;;;21.50;97.80;;;;;;5052398;28;20315;-66
2023/07/09 00:44:33;;;;;;;0.10;0.10;;;21.40;97.70;;;;;;5052453;28;20185;-66
2023/07/09 00:47:00;;;;;;;0.00;0.00;;;21.40;97.80;;;;;;5052239;28;20719;-66
2023/07/09 00:49:36;;;;;;;0.00;0.00;;;21.40;97.90;;;;;;5052232;28;20174;-66
2023/07/09 00:52:19;;;;;;;0.00;0.00;;;21.30;97.90;;;;;;5052135;28;20173;-65
2023/07/09 00:54:46;;;;;;;0.00;0.00;;;21.30;98.00;;;;;;5050944;28;20173;-65
2023/07/09 00:57:19;;;;;;;0.00;0.00;;;21.20;98.30;;;;;;5052126;28;20169;-66
2023/07/09 00:59:53;;;;;;;0.47;0.47;;;21.20;98.40;;;;;;5050705;28;20517;-65
2023/07/09 01:02:23;;;;;;;0.00;0.00;;;21.20;98.40;;;;;;5051744;28;20219;-65
2023/07/09 01:04:55;;;;;;;0.00;0.00;;;21.10;98.40;;;;;;5051949;28;20716;-65
2023/07/09 01:07:21;;;;;;;0.00;0.00;;;21.00;98.50;;;;;;5051751;28;20213;-66
2023/07/09 01:09:47;;;;;;;0.00;0.00;;;21.00;98.70;;;;;;5040451;28;20175;-65
2023/07/09 01:12:14;;;;;;;0.00;0.00;;;20.90;99.00;;;;;;5032092;28;20689;-65
2023/07/09 01:14:40;;;;;;;0.00;0.00;;;20.90;99.10;;;;;;5031706;28;20174;-66
2023/07/09 01:17:09;;;;;;;0.08;0.08;;;20.90;99.30;;;;;;5047623;28;20539;-65
2023/07/09 01:19:43;;;;;;;0.00;0.00;;;20.90;99.50;;;;;;5051741;28;20197;-66
2023/07/09 01:22:16;;;;;;;0.00;0.00;;;20.90;99.80;;;;;;5051785;28;20610;-65
2023/07/09 01:25:03;;;;;;;0.00;0.00;;;20.90;99.80;;;;;;5051588;28;20177;-65
2023/07/09 01:27:38;;;;;;;0.08;0.08;;;20.90;99.90;;;;;;5051371;28;20221;-66
2023/07/09 01:30:07;;;;;;;0.10;0.10;;;20.90;99.90;;;;;;5051616;28;20185;-66
2023/07/09 01:32:33;;;;;;;0.00;0.00;;;20.80;99.90;;;;;;5051562;28;20185;-65
2023/07/09 01:35:06;;;;;;;0.00;0.00;;;20.90;99.90;;;;;;5040019;28;20204;-66
2023/07/09 01:37:35;;;;;;;0.00;0.00;;;20.90;99.90;;;;;;5031718;28;20178;-65
2023/07/09 01:40:00;;;;;;;0.00;0.00;;;20.80;99.90;;;;;;5031416;28;20170;-65
2023/07/09 01:42:28;;;;;;;0.00;0.00;;;20.80;99.90;;;;;;5031425;28;20217;-66
2023/07/09 01:44:54;;;;;;;0.00;0.00;;;20.80;99.90;;;;;;5031506;28;20253;-65
2023/07/09 01:47:23;;;;;;;0.00;0.00;;;20.70;99.90;;;;;;5031202;28;20645;-66
2023/07/09 01:49:49;;;;;;;0.00;0.00;;;20.70;99.90;;;;;;5031484;28;20646;-65
2023/07/09 01:52:18;;;;;;;0.00;0.00;;;20.60;99.90;;;;;;5031461;28;20229;-65
2023/07/09 01:54:49;;;;;;;0.00;0.00;;;20.60;99.90;;;;;;5031394;28;20787;-64
2023/07/09 01:57:22;;;;;;;0.00;0.00;;;20.50;99.90;;;;;;5031308;28;20192;-65
2023/07/09 01:59:50;;;;;;;0.00;0.00;;;20.50;99.90;;;;;;5031249;28;20213;-65
2023/07/09 02:02:18;;;;;;;0.00;0.00;;;20.50;99.90;;;;;;5030002;28;20206;-65
2023/07/09 02:04:49;;;;;;;0.20;0.20;;;20.40;99.90;;;;;;5031432;28;20194;-65
2023/07/09 02:07:15;;;;;;;0.00;0.00;;;20.40;99.90;;;;;;5031298;28;20220;-65
2023/07/09 02:09:41;;;;;;;0.03;0.03;;;20.40;99.90;;;;;;5030924;28;20281;-65
2023/07/09 02:12:08;;;;;;;0.00;0.00;;;20.40;99.90;;;;;;5031225;28;20174;-65
2023/07/09 02:14:33;;;;;;;0.00;0.00;;;20.30;99.90;;;;;;5030985;28;20265;-65
2023/07/09 02:16:59;;;;;;;0.00;0.00;;;20.30;99.90;;;;;;5031164;28;20253;-65
2023/07/09 02:19:24;;;;;;;0.13;0.13;;;20.30;99.90;;;;;;5030974;28;20213;-65
2023/07/09 02:21:50;;;;;;;0.00;0.00;;;20.20;99.90;;;;;;5030887;28;20193;-65
2023/07/09 02:24:15;;;;;;;0.00;0.00;;;20.20;99.90;;;;;;5030900;28;20689;-65
2023/07/09 02:26:41;;;;;;;0.00;0.00;;;20.20;99.90;;;;;;5030762;28;20173;-65
2023/07/09 02:29:07;;;;;;;0.00;0.00;;;20.20;99.90;;;;;;5030690;28;20257;-65
2023/07/09 02:31:33;;;;;;;0.00;0.00;;;20.20;99.90;;;;;;5030767;28;20223;-65
2023/07/09 02:33:59;;;;;;;0.00;0.00;;;20.20;99.90;;;;;;5033178;28;20174;-65
2023/07/09 02:36:25;;;;;;;0.00;0.00;;;20.10;99.90;;;;;;5048408;28;20177;-65
2023/07/09 02:38:51;;;;;;;0.08;0.08;;;20.10;99.90;;;;;;5050892;28;20627;-65
2023/07/09 02:41:16;;;;;;;0.00;0.00;;;20.10;99.90;;;;;;5050761;28;20612;-65
2023/07/09 02:43:42;;;;;;;0.00;0.00;;;20.10;99.90;;;;;;5050711;28;20220;-65
2023/07/09 02:46:08;;;;;;;0.00;0.00;;;20.00;99.90;;;;;;5050649;28;20176;-65
2023/07/09 02:48:33;;;;;;;0.10;0.10;;;20.00;99.90;;;;;;5050632;28;20188;-65
2023/07/09 02:50:59;;;;;;;0.00;0.00;;;20.00;99.90;;;;;;5050437;28;20178;-67
2023/07/09 02:53:25;;;;;;;0.00;0.00;;;19.90;99.90;;;;;;5050474;28;20174;-65
2023/07/09 02:55:50;;;;;;;0.00;0.00;;;19.90;99.90;;;;;;5050455;28;20544;-65
2023/07/09 02:58:16;;;;;;;0.30;0.30;;;19.90;99.90;;;;;;5050376;28;20177;-66
2023/07/09 03:00:41;;;;;;;0.08;0.08;;;19.80;99.90;;;;;;5048998;28;20195;-66
2023/07/09 03:03:07;;;;;;;0.00;0.00;;;19.80;99.90;;;;;;5050405;28;20213;-66
2023/07/09 03:05:33;;;;;;;0.00;0.00;;;19.80;99.90;;;;;;5050395;28;20229;-66
2023/07/09 03:07:59;;;;;;;0.00;0.00;;;19.70;99.90;;;;;;5049106;28;20545;-65
2023/07/09 03:10:24;;;;;;;0.00;0.00;;;19.80;99.90;;;;;;5050274;28;20174;-66
2023/07/09 03:12:49;;;;;;;0.00;0.00;;;19.70;99.90;;;;;;5050220;28;20200;-66
2023/07/09 03:15:15;;;;;;;0.00;0.00;;;19.80;99.90;;;;;;5048884;28;20272;-65
2023/07/09 03:17:41;;;;;;;0.00;0.00;;;19.80;99.90;;;;;;5050005;28;20647;-66
2023/07/09 03:20:07;;;;;;;0.10;0.10;;;19.70;99.90;;;;;;5050159;28;20177;-66
2023/07/09 03:22:33;;;;;;;0.00;0.00;;;19.80;99.90;;;;;;5050029;28;20812;-65
2023/07/09 03:24:58;;;;;;;0.00;0.00;;;19.70;99.90;;;;;;5050037;28;20203;-65
2023/07/09 03:27:24;;;;;;;0.00;0.00;;;19.70;99.90;;;;;;5048530;28;20681;-65
2023/07/09 03:29:49;;;;;;;0.00;0.00;;;19.70;99.90;;;;;;5048929;28;20186;-65
2023/07/09 03:32:15;;;;;;;0.00;0.00;;;19.70;99.90;;;;;;5050639;28;20263;-65
2023/07/09 03:34:40;;;;;;;0.00;0.00;;;19.70;99.90;;;;;;5049064;28;20185;-65
2023/07/09 03:37:06;;;;;;;0.10;0.10;;;19.80;99.90;;;;;;5045008;28;20540;-66
2023/07/09 03:39:31;;;;;;;0.00;0.00;;;19.80;99.90;;;;;;5053676;28;20181;-65
2023/07/09 03:41:57;;;;;;;0.00;0.00;;;19.80;99.90;;;;;;5053649;28;20205;-65
2023/07/09 03:44:22;;;;;;;0.00;0.00;;;19.80;99.90;;;;;;5052570;28;20216;-65
2023/07/09 03:46:48;;;;;;;0.00;0.00;;;19.80;99.90;;;;;;5053834;28;20629;-65
2023/07/09 03:49:13;;;;;;;0.00;0.00;;;19.80;99.90;;;;;;5053800;28;20178;-66
2023/07/09 03:51:39;;;;;;;0.00;0.00;;;19.70;99.90;;;;;;5053561;28;20625;-65
2023/07/09 03:54:05;;;;;;;0.00;0.00;;;19.80;99.90;;;;;;5053772;28;20181;-65
2023/07/09 03:56:31;;;;;;;0.00;0.00;;;19.80;99.90;;;;;;5053614;28;20165;-66
2023/07/09 03:58:57;;;;;;;0.00;0.00;;;19.70;99.90;;;;;;5053712;28;20231;-66
2023/07/09 04:01:22;;;;;;;0.00;0.00;;;19.70;99.90;;;;;;5053536;28;20224;-66
2023/07/09 04:03:48;;;;;;;0.13;0.03;;;19.70;99.90;;;;;;5053189;28;20209;-66
2023/07/09 04:06:14;;;;;;;0.00;0.00;;;19.80;99.90;;;;;;5053201;28;20182;-66
2023/07/09 04:08:39;;;;;;;0.00;0.00;;;19.80;99.90;;;;;;5052991;28;20185;-66
2023/07/09 04:11:05;;;;;;;0.00;0.00;;;19.80;99.90;;;;;;5053084;28;20588;-66
2023/07/09 04:13:30;;;;;;;0.00;0.00;;;19.80;99.90;;;;;;5052941;28;20178;-65
2023/07/09 04:15:57;;;;;;;0.00;0.00;;;19.80;99.90;;;;;;5052923;28;20174;-66
2023/07/09 04:18:22;;;;;;;0.00;0.00;;;19.90;99.90;;;;;;5052692;28;20188;-66
2023/07/09 04:20:49;;;;;;;0.00;0.00;;;20.00;99.90;;;;;;5052851;28;20173;-66
2023/07/09 04:23:15;;;;;;;0.10;0.10;;;20.00;99.90;;;;;;5052803;28;20223;-65
2023/07/09 04:25:41;;;;;;;0.00;0.00;;;20.10;99.90;;;;;;5052584;28;20182;-65
2023/07/09 04:28:07;;;;;;;0.00;0.00;;;20.30;99.90;;;;;;5052515;28;20229;-65
2023/07/09 04:30:32;;;;;;;0.10;0.10;;;20.40;99.90;;;;;;5052482;28;20224;-66
2023/07/09 04:32:58;;;;;;;0.10;0.10;;;20.60;99.90;;;;;;5052533;28;20180;-65
2023/07/09 04:35:23;;;;;;;0.00;0.00;;;20.80;99.90;;;;;;5052258;28;20220;-65
2023/07/09 04:37:49;;;;;;;0.00;0.00;;;21.00;99.90;;;;;;5052372;28;20590;-65
2023/07/09 04:40:15;;;;;;;0.00;0.00;;;21.20;99.90;;;;;;5052353;28;20664;-65
2023/07/09 04:42:41;;;;;;;0.00;0.00;;;21.50;99.90;;;;;;5052318;28;20205;-65
2023/07/09 04:45:09;;;;;;;0.05;0.05;;;21.70;99.90;;;;;;5051302;28;20174;-65
2023/07/09 04:47:34;;;;;;;0.00;0.00;;;22.00;99.90;;;;;;5052194;28;20166;-65
2023/07/09 04:50:00;;;;;;;0.00;0.00;;;22.20;99.90;;;;;;5052011;28;20180;-65
2023/07/09 04:52:25;;;;;;;0.00;0.00;;;22.50;99.90;;;;;;5051901;28;20368;-65
2023/07/09 04:54:51;;;;;;;0.00;0.00;;;22.80;99.90;;;;;;5050658;28;20182;-65
2023/07/09 04:57:17;;;;;;;0.00;0.00;;;23.10;99.90;;;;;;5050746;28;20625;-65
2023/07/09 04:59:43;;;;;;;0.00;0.00;;;23.40;99.90;;;;;;5052103;28;20185;-65
2023/07/09 05:02:09;;;;;;;0.00;0.00;;;23.70;99.80;;;;;;5051709;28;20193;-65
2023/07/09 05:04:34;;;;;;;0.00;0.00;;;24.00;99.20;;;;;;5051660;28;20177;-65
2023/07/09 05:07:00;;;;;;;0.00;0.00;;;24.30;98.70;;;;;;5051488;28;20169;-65
2023/07/09 05:09:26;;;;;;;0.00;0.00;;;24.60;98.10;;;;;;5051485;28;20177;-65
2023/07/09 05:11:51;;;;;;;0.00;0.00;;;24.90;97.40;;;;;;5051649;28;20645;-65
2023/07/09 05:14:18;;;;;;;0.10;0.00;;;25.30;96.70;;;;;;5051444;28;20177;-65
2023/07/09 05:16:45;;;;;;;0.00;0.00;;;25.60;96.30;;;;;;5051468;28;20220;-65
2023/07/09 05:19:11;;;;;;;0.00;0.00;;;25.90;95.60;;;;;;5051347;28;20185;-65
2023/07/09 05:21:36;;;;;;;0.00;0.00;;;26.20;95.10;;;;;;5051268;28;20523;-65
2023/07/09 05:24:02;;;;;;;0.00;0.00;;;26.50;94.50;;;;;;5051178;28;20213;-65
2023/07/09 05:26:27;;;;;;;0.00;0.00;;;26.70;93.50;;;;;;5051203;28;20212;-65
2023/07/09 05:28:56;;;;;;;0.00;0.00;;;27.00;93.20;;;;;;5051190;28;20316;-65
2023/07/09 05:31:22;;;;;;;0.00;0.00;;;27.40;92.70;;;;;;5051019;28;20182;-65
2023/07/09 05:33:47;;;;;;;0.00;0.00;;;27.70;91.80;;;;;;5051017;28;20657;-65
2023/07/09 05:36:15;;;;;;;0.00;0.00;;;28.10;90.50;;;;;;5051084;28;20180;-65
2023/07/09 05:38:43;;;;;;;0.00;0.00;;;28.50;89.50;;;;;;5051053;28;20177;-65
2023/07/09 05:41:09;;;;;;;0.00;0.00;;;28.80;88.20;;;;;;5051041;28;20193;-65
2023/07/09 05:43:34;;;;;;;0.00;0.00;;;29.10;86.30;;;;;;5049522;28;20703;-66
2023/07/09 05:46:02;;;;;;;0.05;0.05;;;29.40;84.80;;;;;;5050828;28;20259;-66
2023/07/09 05:48:28;;;;;;;0.00;0.00;;;29.70;83.30;;;;;;5050859;28;20177;-66
2023/07/09 05:50:56;;;;;;;0.70;0.45;;;30.00;81.50;;;;;;5050717;28;20664;-66
2023/07/09 05:53:23;;;;;;;0.00;0.00;;;30.50;78.70;;;;;;5050804;28;20276;-65
2023/07/09 05:55:49;;;;;;;0.00;0.00;;;31.00;76.90;;;;;;5049231;28;20532;-65
2023/07/09 05:58:14;;;;;;;0.00;0.00;;;31.20;74.30;;;;;;5050894;28;20172;-65
2023/07/09 06:00:41;;;;;;;0.10;0.10;;;31.60;72.80;;;;;;5050531;28;20565;-65
2023/07/09 06:03:07;;;;;;;0.00;0.00;;;31.90;71.60;;;;;;5050575;28;20200;-65
2023/07/09 06:05:36;;;;;;;0.00;0.00;;;32.20;70.60;;;;;;5050557;28;20256;-66
2023/07/09 06:08:03;;;;;;;0.00;0.00;;;32.60;69.10;;;;;;5050935;28;20534;-66
2023/07/09 06:10:29;;;;;;;0.00;0.00;;;33.10;66.60;;;;;;5050717;28;20311;-66
2023/07/09 06:12:57;;;;;;;0.10;0.10;;;33.60;64.40;;;;;;5050772;28;20179;-66
2023/07/09 06:15:22;;;;;;;0.00;0.00;;;34.10;62.60;;;;;;5050496;28;20189;-65
2023/07/09 06:17:48;;;;;;;0.00;0.00;;;34.50;61.10;;;;;;5050680;28;20177;-65
2023/07/09 06:20:13;;;;;;;0.00;0.00;;;34.80;60.60;;;;;;5049336;28;20568;-65
2023/07/09 06:22:39;;;;;;;0.08;0.08;;;35.20;59.20;;;;;;5050078;28;20307;-66
2023/07/09 06:25:05;;;;;;;0.00;0.00;;;35.50;58.70;;;;;;5050675;28;20184;-66
2023/07/09 06:27:30;;;;;;;0.00;0.00;;;35.90;58.10;;;;;;5050234;28;20275;-66
2023/07/09 06:29:56;;;;;;;0.00;0.00;;;36.30;57.50;;;;;;5050613;28;20212;-66
2023/07/09 06:32:21;;;;;;;0.17;0.08;;;36.60;56.90;;;;;;5050462;28;20179;-66
2023/07/09 06:34:47;;;;;;;0.00;0.00;;;36.80;56.30;;;;;;5050348;28;20204;-65
2023/07/09 06:37:12;;;;;;;0.00;0.00;;;37.10;55.80;;;;;;5049444;28;20165;-66
2023/07/09 06:39:38;;;;;;;0.00;0.00;;;37.40;55.10;;;;;;5050209;28;20189;-65
2023/07/09 06:42:04;;;;;;;0.00;0.00;;;37.70;54.50;;;;;;5050347;28;20180;-65
2023/07/09 06:44:29;;;;;;;0.00;0.00;;;37.90;53.80;;;;;;5050210;28;20187;-66
2023/07/09 06:46:55;;;;;;;0.00;0.00;;;38.20;53.60;;;;;;5050413;28;20177;-65
2023/07/09 06:49:20;;;;;;;0.00;0.00;;;38.50;53.20;;;;;;5050158;28;20176;-65
2023/07/09 06:51:46;;;;;;;0.25;0.25;;;38.80;52.10;;;;;;5049225;28;20200;-65
2023/07/09 06:54:12;;;;;;;0.00;0.00;;;39.10;50.50;;;;;;5050604;28;20185;-66
2023/07/09 06:56:38;;;;;;;0.00;0.00;;;39.40;50.20;;;;;;5050239;28;20169;-66
2023/07/09 06:59:04;;;;;;;0.08;0.08;;;39.60;49.70;;;;;;5050457;28;20184;-65
2023/07/09 07:01:29;;;;;;;0.00;0.00;;;39.90;48.70;;;;;;5050393;28;20180;-66
2023/07/09 07:03:55;;;;;;;0.20;0.20;;;40.10;48.20;;;;;;5050402;28;20212;-66
2023/07/09 07:06:20;;;;;;;0.00;0.00;;;40.30;47.60;;;;;;5050206;28;20196;-65
2023/07/09 07:08:46;;;;;;;0.00;0.00;;;40.50;47.70;;;;;;5053405;28;20172;-65
2023/07/09 07:11:11;;;;;;;0.13;0.13;;;40.70;47.50;;;;;;5054239;28;20176;-65
2023/07/09 07:13:39;;;;;;;0.00;0.00;;;41.00;46.70;;;;;;5053956;28;20172;-65
2023/07/09 07:16:07;;;;;;;0.00;0.00;;;41.40;45.50;;;;;;5054202;28;20255;-66
2023/07/09 07:18:33;;;;;;;0.00;0.00;;;41.50;45.70;;;;;;5053898;28;20694;-65
2023/07/09 07:20:59;;;;;;;0.00;0.00;;;41.70;45.50;;;;;;5054127;28;20173;-65
2023/07/09 07:23:25;;;;;;;0.00;0.00;;;41.90;45.10;;;;;;5053960;28;20212;-65
2023/07/09 07:25:51;;;;;;;0.00;0.00;;;42.10;44.10;;;;;;5054156;28;20676;-66
2023/07/09 07:28:17;;;;;;;0.00;0.00;;;42.30;44.30;;;;;;5053983;28;20225;-66
2023/07/09 07:30:43;;;;;;;0.10;0.10;;;42.50;43.90;;;;;;5054081;28;20238;-66
2023/07/09 07:33:09;;;;;;;0.00;0.00;;;42.60;43.40;;;;;;5054091;28;20169;-66
2023/07/09 07:35:36;;;;;;;0.00;0.00;;;42.80;42.60;;;;;;5053640;28;20201;-66
2023/07/09 07:38:02;;;;;;;1.35;0.10;;;42.80;42.60;;;;;;5053879;28;20184;-66
2023/07/09 07:40:28;;;;;;;0.00;0.00;;;42.80;41.70;;;;;;5053794;28;20176;-66
2023/07/09 07:42:54;;;;;;;0.30;0.30;;;42.80;41.90;;;;;;5053732;28;20607;-66
2023/07/09 07:45:21;;;;;;;0.00;0.00;;;43.00;41.20;;;;;;5053500;28;20261;-66
2023/07/09 07:47:47;;;;;;;0.00;0.00;;;43.00;41.20;;;;;;5053629;28;20188;-66
2023/07/09 07:50:13;;;;;;;0.00;0.00;;;43.00;41.30;;;;;;5053585;28;20248;-66
2023/07/09 07:52:38;;;;;;;0.00;0.00;;;42.90;40.70;;;;;;5053300;28;20169;-67
2023/07/09 07:55:06;;;;;;;0.00;0.00;;;43.00;42.40;;;;;;5053591;28;20176;-64
2023/07/09 07:57:32;;;;;;;0.00;0.00;;;43.00;41.10;;;;;;5053372;28;20180;-64
2023/07/09 07:59:57;;;;;;;0.00;0.00;;;43.00;40.60;;;;;;5053317;28;20237;-65
2023/07/09 08:02:23;;;;;;;0.10;0.10;;;43.10;41.20;;;;;;5053307;28;20209;-64
2023/07/09 08:04:50;;;;;;;0.00;0.00;;;43.10;40.20;;;;;;5053632;28;20192;-65
2023/07/09 08:07:18;;;;;;;0.00;0.00;;;43.10;39.20;;;;;;5053502;28;20192;-65
2023/07/09 08:09:44;;;;;;;0.00;0.00;;;43.40;39.50;;;;;;5053347;28;20287;-65
2023/07/09 08:12:11;;;;;;;0.00;0.00;;;43.40;39.50;;;;;;5053298;28;20248;-64
2023/07/09 08:14:38;;;;;;;0.80;0.10;;;43.50;38.40;;;;;;5053182;28;20185;-64
2023/07/09 08:17:04;;;;;;;0.10;0.10;;;43.50;39.00;;;;;;5053291;28;20632;-64
2023/07/09 08:19:31;;;;;;;0.00;0.00;;;43.60;39.50;;;;;;5053193;28;20185;-64
2023/07/09 08:21:56;;;;;;;0.00;0.00;;;43.50;39.80;;;;;;5053271;28;20215;-64
2023/07/09 08:24:22;;;;;;;0.00;0.00;;;43.60;39.50;;;;;;5051774;28;20715;-64
2023/07/09 08:26:47;;;;;;;0.00;0.00;;;43.70;40.10;;;;;;5052872;28;20179;-64
2023/07/09 08:29:13;;;;;;;0.00;0.00;;;43.80;38.60;;;;;;5052367;28;20260;-64
2023/07/09 08:31:41;;;;;;;0.00;0.00;;;43.70;38.90;;;;;;5052411;28;20181;-64
2023/07/09 08:34:07;;;;;;;0.08;0.08;;;43.70;39.30;;;;;;5049852;28;20195;-65
2023/07/09 08:36:32;;;;;;;0.10;0.10;;;43.70;38.90;;;;;;5032472;28;20182;-65
2023/07/09 08:38:58;;;;;;;0.00;0.00;;;43.60;38.70;;;;;;5032446;28;20253;-65
2023/07/09 08:41:29;;;;;;;0.00;0.00;;;43.60;37.80;;;;;;5032341;28;20260;-66
2023/07/09 08:44:03;;;;;;;0.00;0.00;;;43.50;37.80;;;;;;5032539;28;20248;-66
2023/07/09 08:46:37;;;;;;;0.00;0.00;;;43.20;37.90;;;;;;5032270;28;20174;-65
2023/07/09 08:49:09;;;;;;;0.00;0.00;;;43.00;38.50;;;;;;5032524;28;20781;-66
2023/07/09 08:51:41;;;;;;;0.10;0.10;;;42.90;38.40;;;;;;5032297;28;20186;-65
2023/07/09 08:54:34;;;;;;;0.00;0.00;;;42.90;39.30;;;;;;5032238;28;20532;-65
2023/07/09 08:57:27;;;;;;;1.02;0.40;;;42.80;39.10;;;;;;5032260;28;20190;-65
2023/07/09 09:00:00;;;;;;;0.10;0.10;;;42.80;40.00;;;;;;5032212;28;20184;-65
2023/07/09 09:02:41;;;;;;;0.00;0.00;;;42.80;39.80;;;;;;5031918;28;20206;-65
2023/07/09 09:05:09;;;;;;;0.00;0.00;;;42.70;40.20;;;;;;5032127;28;20181;-65
2023/07/09 09:07:40;;;;;;;0.17;0.17;;;42.60;38.90;;;;;;5031888;28;20256;-65
2023/07/09 09:10:14;;;;;;;0.00;0.00;;;42.40;38.70;;;;;;5031974;28;20181;-65
2023/07/09 09:13:04;;;;;;;0.00;0.00;;;42.20;39.20;;;;;;5031625;28;20718;-65
2023/07/09 09:15:30;;;;;;;0.00;0.00;;;42.30;39.90;;;;;;5031886;28;20323;-65
2023/07/09 09:18:09;;;;;;;0.63;0.08;;;42.20;40.10;;;;;;5031881;28;20193;-65
2023/07/09 09:20:34;;;;;;;0.00;0.00;;;42.10;40.60;;;;;;5031682;28;20182;-65
2023/07/09 09:23:06;;;;;;;0.00;0.00;;;42.20;40.90;;;;;;5031637;28;20271;-65
2023/07/09 09:25:33;;;;;;;0.00;0.00;;;42.20;39.30;;;;;;5031697;28;20177;-65
2023/07/09 09:28:02;;;;;;;0.00;0.00;;;42.00;39.00;;;;;;5031174;28;20574;-65
2023/07/09 09:30:29;;;;;;;0.00;0.00;;;41.80;39.20;;;;;;5030934;28;20276;-64
2023/07/09 09:33:02;;;;;;;0.10;0.10;;;41.60;38.90;;;;;;5031562;28;20173;-65
2023/07/09 09:35:39;;;;;;;0.00;0.00;;;41.30;40.10;;;;;;5046137;28;20176;-65
2023/07/09 09:38:25;;;;;;;0.00;0.00;;;40.90;39.80;;;;;;5051352;28;20513;-64
2023/07/09 09:40:50;;;;;;;0.00;0.00;;;41.10;39.90;;;;;;5051122;28;20185;-65
2023/07/09 09:43:19;;;;;;;0.03;0.03;;;41.30;39.70;;;;;;5051198;28;20238;-65
2023/07/09 09:45:48;;;;;;;0.00;0.00;;;41.30;37.90;;;;;;5051237;28;20191;-65
2023/07/09 09:48:33;;;;;;;0.00;0.00;;;41.40;38.30;;;;;;5051184;28;20571;-65
2023/07/09 09:51:03;;;;;;;0.00;0.00;;;41.60;38.00;;;;;;5050858;28;20223;-66
2023/07/09 09:53:34;;;;;;;0.00;0.00;;;41.90;39.50;;;;;;5051137;28;20665;-66
2023/07/09 09:56:05;;;;;;;0.00;0.00;;;41.90;37.50;;;;;;5051082;28;20200;-66
2023/07/09 09:58:31;;;;;;;0.10;0.10;;;41.80;38.20;;;;;;5050974;28;20207;-66
2023/07/09 10:01:00;;;;;;;0.00;0.00;;;41.50;38.60;;;;;;5051086;28;20568;-66
2023/07/09 10:03:36;;;;;;;0.00;0.00;;;41.60;37.70;;;;;;5050772;28;20216;-66
2023/07/09 10:06:18;;;;;;;0.00;0.00;;;41.80;38.10;;;;;;5051092;28;20543;-66
2023/07/09 10:08:56;;;;;;;0.00;0.00;;;42.10;37.20;;;;;;5050908;28;20164;-66
2023/07/09 10:11:53;;;;;;;0.00;0.00;;;42.10;37.20;;;;;;5050859;28;20210;-66
2023/07/09 10:14:33;;;;;;;0.00;0.00;;;41.50;35.90;;;;;;5048637;28;20585;-66
2023/07/09 10:17:17;;;;;;;0.00;0.00;;;41.30;37.50;;;;;;5049447;28;20177;-66
2023/07/09 10:20:03;;;;;;;0.00;0.00;;;41.40;37.80;;;;;;5050649;28;20165;-66
2023/07/09 10:22:54;;;;;;;0.05;0.05;;;41.40;37.20;;;;;;5050720;28;20204;-66
2023/07/09 10:25:49;;;;;;;0.10;0.10;;;41.50;37.10;;;;;;5050557;28;20191;-66
2023/07/09 10:28:41;;;;;;;0.00;0.00;;;41.80;36.80;;;;;;5050488;28;20236;-66
2023/07/09 10:31:40;;;;;;;0.00;0.00;;;41.80;36.10;;;;;;5050743;28;20209;-66
2023/07/09 10:34:20;;;;;;;0.05;0.05;;;41.80;37.20;;;;;;5043245;28;20212;-66
2023/07/09 10:37:23;;;;;;;0.00;0.00;;;41.70;37.80;;;;;;5050614;28;20234;-66
2023/07/09 10:39:55;;;;;;;0.00;0.00;;;41.60;36.00;;;;;;5050580;28;20184;-65
2023/07/09 10:42:30;;;;;;;0.00;0.00;;;41.80;35.80;;;;;;5052681;28;20833;-65
2023/07/09 10:45:10;;;;;;;0.30;0.30;;;41.60;35.30;;;;;;5054751;28;20226;-65
2023/07/09 10:47:47;;;;;;;0.10;0.10;;;41.30;35.60;;;;;;5054637;28;20180;-65
2023/07/09 10:50:22;;;;;;;0.00;0.00;;;41.10;36.40;;;;;;5054520;28;20628;-65
2023/07/09 10:52:53;;;;;;;0.05;0.05;;;41.10;37.20;;;;;;5054605;28;20180;-66
2023/07/09 10:55:43;;;;;;;0.00;0.00;;;41.20;36.40;;;;;;5054298;28;20165;-66
2023/07/09 10:58:24;;;;;;;0.00;0.00;;;41.40;37.40;;;;;;5054460;28;20189;-66
2023/07/09 11:00:50;;;;;;;0.00;0.00;;;41.60;37.10;;;;;;5054485;28;20173;-66
2023/07/09 11:03:21;;;;;;;0.00;0.00;;;41.60;36.00;;;;;;5054139;28;20208;-66
2023/07/09 11:05:49;;;;;;;0.00;0.00;;;41.60;35.70;;;;;;5054290;28;20165;-65
2023/07/09 11:08:42;;;;;;;0.00;0.00;;;41.50;34.60;;;;;;5054191;28;20248;-65
2023/07/09 11:11:23;;;;;;;0.00;0.00;;;41.50;33.70;;;;;;5054285;28;20180;-66
2023/07/09 11:13:57;;;;;;;0.10;0.10;;;41.60;34.80;;;;;;5054149;28;20183;-66
2023/07/09 11:16:37;;;;;;;0.30;0.30;;;41.90;34.40;;;;;;5053890;28;20230;-66
2023/07/09 11:19:05;;;;;;;0.08;0.03;;;41.90;34.50;;;;;;5054114;28;20175;-66
2023/07/09 11:21:30;;;;;;;0.00;0.00;;;41.90;33.90;;;;;;5053869;28;20173;-66
2023/07/09 11:24:00;;;;;;;0.00;0.00;;;41.90;34.60;;;;;;5053900;28;20227;-66
2023/07/09 11:26:32;;;;;;;0.00;0.00;;;41.50;32.80;;;;;;5053869;28;20796;-66
2023/07/09 11:29:06;;;;;;;0.00;0.00;;;41.00;33.30;;;;;;5053533;28;20328;-66
2023/07/09 11:31:40;;;;;;;0.00;0.00;;;40.80;34.00;;;;;;5053843;28;20663;-65
2023/07/09 11:34:17;;;;;;;0.85;0.38;;;40.70;34.20;;;;;;5051233;28;20181;-66
2023/07/09 11:36:54;;;;;;;0.00;0.00;;;40.50;34.20;;;;;;5033757;28;20169;-65
2023/07/09 11:39:42;;;;;;;0.00;0.00;;;40.50;33.40;;;;;;5033556;28;20185;-66
2023/07/09 11:42:27;;;;;;;0.00;0.00;;;40.50;33.80;;;;;;5033752;28;20256;-66
2023/07/09 11:45:16;;;;;;;0.00;0.00;;;40.60;32.80;;;;;;5032309;28;21202;-65
2023/07/09 11:47:52;;;;;;;0.00;0.00;;;40.60;32.20;;;;;;5033562;28;20182;-65
2023/07/09 11:50:27;;;;;;;0.10;0.10;;;40.80;34.70;;;;;;5033379;28;20188;-65
2023/07/09 11:53:00;;;;;;;0.00;0.00;;;41.20;32.00;;;;;;5032857;28;20660;-65
2023/07/09 11:55:27;;;;;;;0.00;0.00;;;41.30;31.20;;;;;;5033298;28;20174;-65
2023/07/09 11:57:59;;;;;;;0.03;0.00;;;41.20;31.80;;;;;;5033392;28;20231;-65
2023/07/09 12:00:28;;;;;;;0.30;0.30;;;41.20;31.90;;;;;;5033199;28;20641;-65
2023/07/09 12:02:54;;;;;;;0.00;0.00;;;41.10;32.40;;;;;;5033166;28;20217;-65
2023/07/09 12:05:25;;;;;;;0.10;0.10;;;41.20;32.70;;;;;;5033004;28;20454;-65
2023/07/09 12:07:51;;;;;;;0.00;0.00;;;41.40;31.50;;;;;;5033222;28;20677;-65
2023/07/09 12:10:23;;;;;;;0.00;0.00;;;41.40;31.50;;;;;;5032932;28;20212;-66
2023/07/09 12:12:53;;;;;;;0.00;0.00;;;41.20;30.60;;;;;;5033104;28;20181;-66
2023/07/09 12:15:22;;;;;;;0.00;0.00;;;41.20;31.30;;;;;;5032787;28;20716;-65
2023/07/09 12:17:59;;;;;;;0.20;0.20;;;41.10;31.50;;;;;;5032895;28;20649;-65
2023/07/09 12:20:29;;;;;;;0.00;0.00;;;41.20;31.90;;;;;;5032819;28;20176;-65
2023/07/09 12:22:54;;;;;;;0.00;0.00;;;41.30;32.40;;;;;;5031464;28;20566;-66
2023/07/09 12:25:33;;;;;;;0.00;0.00;;;41.50;32.40;;;;;;5032612;28;20252;-66
2023/07/09 12:27:59;;;;;;;0.00;0.00;;;41.40;31.60;;;;;;5032872;28;20589;-65
2023/07/09 12:30:24;;;;;;;0.00;0.00;;;41.20;32.70;;;;;;5033137;28;20161;-65
2023/07/09 12:32:53;;;;;;;0.15;0.15;;;41.10;32.10;;;;;;5033201;28;20664;-65
2023/07/09 12:35:20;;;;;;;0.00;0.00;;;40.90;31.70;;;;;;5046600;28;20192;-65
2023/07/09 12:37:48;;;;;;;0.00;0.00;;;40.80;32.30;;;;;;5053017;28;20651;-65
2023/07/09 12:40:19;;;;;;;0.00;0.00;;;40.60;31.10;;;;;;5052827;28;20199;-65
2023/07/09 12:42:45;;;;;;;0.00;0.00;;;40.50;31.10;;;;;;5052896;28;20294;-65
2023/07/09 12:45:21;;;;;;;0.13;0.10;;;40.50;31.20;;;;;;5052852;28;20668;-65
2023/07/09 12:47:48;;;;;;;0.10;0.10;;;40.30;31.20;;;;;;5052729;28;20183;-65
2023/07/09 12:50:34;;;;;;;0.00;0.00;;;40.30;31.70;;;;;;5052575;28;20200;-65
2023/07/09 12:53:14;;;;;;;0.00;0.00;;;40.50;31.90;;;;;;5052557;28;20173;-65
2023/07/09 12:55:42;;;;;;;0.00;0.00;;;40.60;31.90;;;;;;5052465;28;20242;-65
2023/07/09 12:58:19;;;;;;;0.00;0.00;;;40.80;32.30;;;;;;5052471;28;20529;-65
2023/07/09 13:00:51;;;;;;;0.00;0.00;;;41.20;31.50;;;;;;5052541;28;20180;-65